Time;durP1;ratioP1;P1;durP2;ratioP2;P2;SDS_P1;SDS_P2;PMS_P1;PMS_P2;Temp;Humidity;BMP_temperature;BMP_pressure;BME280_temperature;BME280_humidity;BME280_pressure;Samples;Min_cycle;Max_cycle;Signal;HPM_P1;HPM_P2
2023/09/01 00:01:15;;;;;;;3.35;0.75;;;;;;;13.49;71.70;100566.91;5002979;28;20056;-77
2023/09/01 00:03:42;;;;;;;1.05;0.40;;;;;;;13.54;71.70;100574.59;4994237;28;20435;-76
2023/09/01 00:06:12;;;;;;;0.60;0.40;;;;;;;13.53;71.87;100572.91;5000921;28;20054;-76
2023/09/01 00:08:41;;;;;;;0.90;0.40;;;;;;;13.52;72.08;100571.19;4998978;28;20114;-76
2023/09/01 00:11:08;;;;;;;0.60;0.30;;;;;;;13.44;71.74;100557.47;5000214;28;20483;-77
2023/09/01 00:13:35;;;;;;;1.08;0.22;;;;;;;13.50;71.93;100565.13;4996761;28;20054;-77
2023/09/01 00:16:02;;;;;;;3.95;0.35;;;;;;;13.49;71.99;100563.44;5002886;28;20050;-76
2023/09/01 00:18:30;;;;;;;1.77;0.32;;;;;;;13.48;72.06;100559.06;4997812;28;20053;-76
2023/09/01 00:21:00;;;;;;;2.15;0.77;;;;;;;13.46;72.25;100556.50;4995612;28;20069;-76
2023/09/01 00:23:27;;;;;;;2.35;0.30;;;;;;;13.45;72.24;100565.28;5000183;28;20042;-76
2023/09/01 00:25:56;;;;;;;1.25;0.30;;;;;;;13.44;72.32;100557.47;5004065;28;20057;-76
2023/09/01 00:28:23;;;;;;;3.55;0.30;;;;;;;13.40;72.55;100550.59;4999868;28;20039;-76
2023/09/01 00:30:52;;;;;;;0.60;0.30;;;;;;;13.40;72.68;100550.59;4997204;28;20438;-77
2023/09/01 00:33:19;;;;;;;2.05;0.40;;;;;;;13.44;72.73;100552.22;4998011;28;20128;-76
2023/09/01 00:35:46;;;;;;;0.47;0.30;;;;;;;13.44;72.94;100560.09;5000473;28;20068;-77
2023/09/01 00:38:12;;;;;;;0.47;0.30;;;;;;;13.42;73.29;100556.66;5000563;28;20050;-76
2023/09/01 00:40:39;;;;;;;1.05;0.32;;;;;;;13.43;73.24;100556.63;5003348;28;20152;-77
2023/09/01 00:43:08;;;;;;;2.83;0.38;;;;;;;13.46;73.32;100558.25;5000586;28;20042;-76
2023/09/01 00:45:36;;;;;;;1.77;0.40;;;;;;;13.46;73.55;100545.13;5003059;28;20903;-76
2023/09/01 00:48:04;;;;;;;0.82;0.35;;;;;;;13.47;73.72;100555.59;4999864;28;20046;-76
2023/09/01 00:50:31;;;;;;;1.05;0.30;;;;;;;13.48;73.88;100548.56;5000663;28;20549;-76
2023/09/01 00:52:58;;;;;;;4.63;0.30;;;;;;;13.48;73.97;100551.19;5001379;28;20042;-75
2023/09/01 00:55:25;;;;;;;1.02;0.55;;;;;;;13.49;74.25;100537.19;4993458;28;20504;-75
2023/09/01 00:57:51;;;;;;;1.65;0.30;;;;;;;13.51;74.35;100537.97;4994091;28;20054;-76
2023/09/01 01:00:20;;;;;;;2.42;0.47;;;;;;;13.53;74.61;100535.31;5001126;28;20052;-76
2023/09/01 01:02:47;;;;;;;2.30;0.47;;;;;;;13.54;74.70;100542.25;4995538;28;20050;-77
2023/09/01 01:05:16;;;;;;;3.42;0.70;;;;;;;13.55;75.10;100541.34;5001855;28;20053;-77
2023/09/01 01:07:49;;;;;;;0.52;0.43;;;;;;;13.57;75.17;100536.91;4998962;28;20069;-76
2023/09/01 01:10:21;;;;;;;1.08;0.30;;;;;;;13.59;75.13;100532.47;4999474;28;20050;-76
2023/09/01 01:12:53;;;;;;;1.55;0.45;;;;;;;13.61;75.24;100534.13;4997601;28;20430;-76
2023/09/01 01:15:23;;;;;;;2.05;0.40;;;;;;;13.62;75.31;100538.47;4996256;28;20056;-74
2023/09/01 01:17:54;;;;;;;1.65;1.08;;;;;;;13.63;75.16;100532.31;4991490;28;20062;-75
2023/09/01 01:20:34;;;;;;;3.97;0.30;;;;;;;13.66;75.08;100537.47;4993834;28;20046;-74
2023/09/01 01:23:11;;;;;;;4.25;0.32;;;;;;;13.67;75.21;100538.31;4989460;28;20046;-76
2023/09/01 01:25:45;;;;;;;0.60;0.32;;;;;;;13.67;75.20;100531.28;4990435;28;20503;-74
2023/09/01 01:28:12;;;;;;;1.33;0.30;;;;;;;13.61;75.07;100517.53;4991676;28;20388;-74
2023/09/01 01:30:39;;;;;;;2.25;0.40;;;;;;;13.71;75.28;100530.25;4995603;28;20038;-75
2023/09/01 01:33:23;;;;;;;2.40;0.40;;;;;;;13.72;75.54;100531.97;4967656;28;20054;-74
2023/09/01 01:36:00;;;;;;;4.25;0.45;;;;;;;13.70;75.42;100528.53;4993557;28;20054;-75
2023/09/01 01:38:32;;;;;;;4.78;0.40;;;;;;;13.75;75.62;100536.28;4994370;28;20419;-74
2023/09/01 01:41:08;;;;;;;3.03;0.40;;;;;;;13.77;75.54;100533.56;4993385;28;20478;-73
2023/09/01 01:43:36;;;;;;;0.68;0.47;;;;;;;13.78;75.71;100524.81;4995602;28;20060;-74
2023/09/01 01:46:04;;;;;;;0.45;0.45;;;;;;;13.80;75.72;100534.31;4993356;28;20053;-74
2023/09/01 01:48:30;;;;;;;2.85;0.40;;;;;;;13.82;76.00;100531.66;4990542;28;20057;-73
2023/09/01 01:50:57;;;;;;;2.55;0.43;;;;;;;13.83;75.96;100526.38;4990881;28;20073;-75
2023/09/01 01:53:24;;;;;;;0.40;0.30;;;;;;;13.83;75.80;100520.22;4991669;28;20051;-74
2023/09/01 01:55:52;;;;;;;0.32;0.30;;;;;;;13.87;75.98;100519.22;4993248;28;20062;-75
2023/09/01 01:58:19;;;;;;;0.75;0.30;;;;;;;13.88;75.91;100521.78;4991166;28;20057;-74
2023/09/01 02:00:46;;;;;;;0.63;0.43;;;;;;;13.69;76.08;100478.75;4993716;28;20054;-74
2023/09/01 02:03:13;;;;;;;0.60;0.40;;;;;;;13.91;75.91;100516.41;4994409;28;20046;-74
2023/09/01 02:05:40;;;;;;;1.38;0.47;;;;;;;13.92;75.92;100517.28;4991662;28;20046;-74
2023/09/01 02:08:07;;;;;;;0.40;0.40;;;;;;;13.93;75.95;100519.84;4992709;28;20057;-74
2023/09/01 02:10:34;;;;;;;1.17;0.63;;;;;;;13.95;75.87;100532.94;4994417;28;20507;-75
2023/09/01 02:13:04;;;;;;;0.80;0.40;;;;;;;13.88;76.07;100520.91;4998646;28;20072;-74
2023/09/01 02:15:31;;;;;;;0.95;0.50;;;;;;;13.93;75.98;100526.88;4991042;28;20054;-75
2023/09/01 02:17:58;;;;;;;0.47;0.40;;;;;;;13.97;76.10;100533.72;4992970;28;20804;-74
2023/09/01 02:20:26;;;;;;;1.25;0.50;;;;;;;13.99;76.02;100525.78;4990732;28;20410;-75
2023/09/01 02:22:55;;;;;;;0.65;0.43;;;;;;;14.00;76.01;100520.47;4996648;28;20053;-75
2023/09/01 02:25:22;;;;;;;0.80;0.30;;;;;;;14.00;75.86;100517.84;5000097;28;20421;-78
2023/09/01 02:27:49;;;;;;;0.98;0.40;;;;;;;14.02;75.89;100517.81;4995769;28;20692;-75
2023/09/01 02:30:17;;;;;;;0.80;0.40;;;;;;;14.02;76.06;100518.66;4996591;28;20047;-75
2023/09/01 02:32:44;;;;;;;0.40;0.40;;;;;;;14.04;76.01;100527.34;4995381;28;20061;-76
2023/09/01 02:35:11;;;;;;;0.90;0.45;;;;;;;14.02;76.16;100523.91;4991858;28;20050;-75
2023/09/01 02:37:38;;;;;;;0.82;0.60;;;;;;;14.02;76.17;100518.66;4996917;28;20463;-76
2023/09/01 02:40:10;;;;;;;5.75;0.50;;;;;;;14.06;76.13;100524.63;5000672;28;20621;-76
2023/09/01 02:42:41;;;;;;;0.85;0.45;;;;;;;14.07;76.15;100524.59;4992482;28;20053;-75
2023/09/01 02:45:11;;;;;;;1.63;0.50;;;;;;;14.07;76.14;100519.34;4997458;28;20674;-77
2023/09/01 02:47:40;;;;;;;0.77;0.47;;;;;;;14.08;76.08;100521.03;5005770;28;20122;-75
2023/09/01 02:50:08;;;;;;;0.63;0.40;;;;;;;14.00;76.15;100506.50;5000505;28;20045;-75
2023/09/01 02:52:35;;;;;;;2.05;0.40;;;;;;;14.09;76.48;100514.91;5000093;28;20057;-76
2023/09/01 02:55:03;;;;;;;0.93;0.45;;;;;;;14.08;76.50;100518.41;4998699;28;20050;-77
2023/09/01 02:57:29;;;;;;;1.45;0.50;;;;;;;14.10;76.53;100521.84;5001022;28;20097;-77
2023/09/01 02:59:56;;;;;;;1.25;0.30;;;;;;;14.12;76.35;100525.28;4999351;28;20046;-76
2023/09/01 03:02:24;;;;;;;1.08;0.40;;;;;;;14.11;76.39;100518.31;5005078;28;20046;-76
2023/09/01 03:04:53;;;;;;;2.38;0.50;;;;;;;14.15;76.58;100519.06;4999703;28;20049;-75
2023/09/01 03:07:20;;;;;;;2.22;0.40;;;;;;;14.05;76.46;100504.56;5003002;28;20050;-74
2023/09/01 03:09:47;;;;;;;2.58;0.60;;;;;;;14.15;76.56;100517.28;4999160;28;20042;-75
2023/09/01 03:12:14;;;;;;;2.35;0.40;;;;;;;14.16;76.55;100512.88;5004653;28;20062;-75
2023/09/01 03:14:41;;;;;;;0.82;0.60;;;;;;;14.17;76.62;100517.22;4999625;28;20093;-75
2023/09/01 03:17:08;;;;;;;1.75;0.40;;;;;;;14.17;76.61;100506.72;5004066;28;20167;-75
2023/09/01 03:19:40;;;;;;;2.40;0.80;;;;;;;14.18;76.79;100505.81;4999805;28;20405;-78
2023/09/01 03:22:08;;;;;;;0.70;0.45;;;;;;;14.18;76.62;100503.19;5000560;28;20050;-74
2023/09/01 03:24:35;;;;;;;0.80;0.45;;;;;;;14.19;76.74;100499.63;4995982;28;20038;-74
2023/09/01 03:27:02;;;;;;;1.15;0.50;;;;;;;14.18;76.67;100501.41;4998978;28;20056;-75
2023/09/01 03:29:29;;;;;;;0.75;0.73;;;;;;;14.17;76.85;100502.34;4996145;28;20048;-73
2023/09/01 03:31:56;;;;;;;0.40;0.30;;;;;;;14.19;76.91;100494.38;4994605;28;20046;-78
2023/09/01 03:34:23;;;;;;;1.17;0.40;;;;;;;14.20;76.88;100496.09;5001207;28;20052;-76
2023/09/01 03:36:50;;;;;;;0.60;0.40;;;;;;;14.11;76.98;100476.28;4997083;28;20060;-77
2023/09/01 03:39:18;;;;;;;1.08;0.47;;;;;;;14.19;77.00;100483.88;5001746;28;20042;-77
2023/09/01 03:41:45;;;;;;;0.60;0.50;;;;;;;14.22;76.79;100477.66;5004615;28;20043;-77
2023/09/01 03:44:12;;;;;;;1.95;0.40;;;;;;;14.23;77.02;100479.34;5008324;28;20048;-77
2023/09/01 03:46:39;;;;;;;0.50;0.40;;;;;;;14.24;77.25;100481.09;5000924;28;20096;-77
2023/09/01 03:49:06;;;;;;;1.70;0.63;;;;;;;14.24;77.40;100478.47;5005537;28;20046;-77
2023/09/01 03:51:32;;;;;;;2.58;0.40;;;;;;;14.25;77.43;100473.13;5004463;28;20053;-77
2023/09/01 03:53:59;;;;;;;0.88;0.32;;;;;;;14.27;77.48;100475.72;5000397;28;20509;-77
2023/09/01 03:56:27;;;;;;;2.15;0.40;;;;;;;14.27;77.64;100480.97;5002843;28;20049;-77
2023/09/01 03:58:54;;;;;;;0.77;0.30;;;;;;;14.23;77.44;100466.22;4998293;28;20042;-77
2023/09/01 04:01:20;;;;;;;0.52;0.30;;;;;;;14.21;77.60;100462.81;5001551;28;20050;-77
2023/09/01 04:03:48;;;;;;;1.15;0.40;;;;;;;14.31;77.72;100474.66;5000205;28;20054;-77
2023/09/01 04:06:15;;;;;;;0.77;0.40;;;;;;;14.28;77.39;100470.38;5002246;28;20049;-77
2023/09/01 04:08:42;;;;;;;0.40;0.30;;;;;;;14.33;77.86;100480.72;5001522;28;20054;-77
2023/09/01 04:11:09;;;;;;;1.75;0.30;;;;;;;14.28;77.79;100465.13;5001192;28;20049;-77
2023/09/01 04:13:38;;;;;;;0.95;0.35;;;;;;;14.35;77.79;100474.50;5000759;28;20054;-77
2023/09/01 04:16:05;;;;;;;0.70;0.30;;;;;;;14.37;78.09;100471.78;5000416;28;20057;-77
2023/09/01 04:18:32;;;;;;;0.40;0.30;;;;;;;14.32;78.14;100468.50;4999353;28;20047;-77
2023/09/01 04:20:59;;;;;;;0.60;0.40;;;;;;;14.29;77.98;100458.97;4995337;28;20083;-78
2023/09/01 04:23:26;;;;;;;0.50;0.30;;;;;;;14.25;78.15;100453.88;4998694;28;20042;-79
2023/09/01 04:25:53;;;;;;;0.40;0.30;;;;;;;14.42;78.24;100476.88;5001063;28;20046;-77
2023/09/01 04:28:20;;;;;;;1.08;0.30;;;;;;;14.42;78.19;100469.84;5006707;28;20053;-77
2023/09/01 04:30:49;;;;;;;2.08;0.30;;;;;;;14.43;78.29;100465.44;5003479;28;20046;-78
2023/09/01 04:33:16;;;;;;;1.08;0.30;;;;;;;14.44;78.19;100472.44;4991855;28;20046;-75
2023/09/01 04:35:44;;;;;;;3.05;0.40;;;;;;;14.46;78.41;100479.34;4996622;28;20053;-75
2023/09/01 04:38:11;;;;;;;2.25;0.40;;;;;;;14.44;78.41;100480.31;4997238;28;20047;-74
2023/09/01 04:40:37;;;;;;;0.95;0.47;;;;;;;14.47;78.44;100481.03;4995056;28;20054;-75
2023/09/01 04:43:04;;;;;;;0.63;0.30;;;;;;;14.48;78.56;100480.13;4996091;28;20046;-77
2023/09/01 04:45:31;;;;;;;2.28;0.30;;;;;;;14.50;78.45;100487.94;4998486;28;20049;-78
2023/09/01 04:47:59;;;;;;;0.60;0.30;;;;;;;14.52;78.54;100483.53;5002303;28;20050;-77
2023/09/01 04:50:26;;;;;;;0.60;0.30;;;;;;;14.52;78.42;100479.13;4997154;28;20054;-77
2023/09/01 04:52:53;;;;;;;0.77;0.30;;;;;;;14.54;78.59;100479.03;5003477;28;20038;-77
2023/09/01 04:55:20;;;;;;;0.68;0.30;;;;;;;14.56;78.59;100482.47;4998010;28;20069;-78
2023/09/01 04:57:48;;;;;;;0.50;0.40;;;;;;;14.56;78.57;100482.47;4999651;28;20042;-78
2023/09/01 05:00:18;;;;;;;0.80;0.30;;;;;;;14.58;78.55;100476.25;5003592;28;20152;-78
2023/09/01 05:02:46;;;;;;;0.75;0.40;;;;;;;14.59;78.47;100474.47;5001805;28;20051;-78
2023/09/01 05:05:15;;;;;;;1.17;0.28;;;;;;;14.59;78.53;100471.84;5005083;28;20053;-78
2023/09/01 05:07:43;;;;;;;0.60;0.30;;;;;;;14.61;78.55;100475.28;4992092;28;20053;-79
2023/09/01 05:10:10;;;;;;;0.30;0.30;;;;;;;14.63;78.36;100481.34;4994836;28;21311;-78
2023/09/01 05:12:37;;;;;;;3.80;0.32;;;;;;;14.65;78.26;100476.00;5001458;28;20061;-79
2023/09/01 05:15:05;;;;;;;2.70;0.50;;;;;;;14.66;78.62;100472.44;5003607;28;20056;-78
2023/09/01 05:17:32;;;;;;;1.20;0.40;;;;;;;14.68;78.47;100475.88;5001444;28;20061;-78
2023/09/01 05:19:59;;;;;;;1.13;0.40;;;;;;;14.68;78.47;100465.34;5001519;28;20061;-78
2023/09/01 05:22:28;;;;;;;1.00;0.45;;;;;;;14.69;78.81;100467.94;4994749;28;20046;-78
2023/09/01 05:24:55;;;;;;;1.42;0.40;;;;;;;14.70;78.56;100468.78;4998659;28;20116;-78
2023/09/01 05:27:21;;;;;;;1.50;0.40;;;;;;;14.70;78.94;100461.75;4993400;28;20521;-78
2023/09/01 05:29:49;;;;;;;2.15;0.63;;;;;;;14.72;78.74;100465.19;4999898;28;20049;-79
2023/09/01 05:32:17;;;;;;;1.65;0.50;;;;;;;14.74;78.71;100473.88;5000475;28;20045;-78
2023/09/01 05:34:44;;;;;;;3.17;0.45;;;;;;;14.75;78.86;100472.94;5002292;28;20050;-78
2023/09/01 05:37:12;;;;;;;1.15;0.47;;;;;;;14.76;78.80;100468.53;4995309;28;20534;-78
2023/09/01 05:39:40;;;;;;;0.85;0.40;;;;;;;14.77;78.90;100476.38;5001382;28;20610;-78
2023/09/01 05:42:08;;;;;;;3.78;0.60;;;;;;;14.79;78.57;100485.03;5003001;28;20046;-77
2023/09/01 05:44:36;;;;;;;1.02;0.52;;;;;;;14.81;78.60;100479.72;4996465;28;20057;-77
2023/09/01 05:47:03;;;;;;;0.80;0.50;;;;;;;14.82;78.71;100479.66;4999953;28;20050;-76
2023/09/01 05:49:32;;;;;;;2.42;0.40;;;;;;;14.83;78.77;100484.00;4997327;28;20042;-77
2023/09/01 05:51:59;;;;;;;1.50;0.50;;;;;;;14.84;78.83;100482.22;4993731;28;20061;-78
2023/09/01 05:54:26;;;;;;;0.50;0.40;;;;;;;14.84;78.95;100479.59;5001453;28;20042;-76
2023/09/01 05:56:54;;;;;;;2.88;0.50;;;;;;;14.86;78.69;100488.28;4997881;28;20602;-76
2023/09/01 05:59:21;;;;;;;0.88;0.57;;;;;;;14.89;78.81;100488.16;4991867;28;20069;-77
2023/09/01 06:01:48;;;;;;;2.88;0.60;;;;;;;14.89;78.68;100493.44;4996743;28;21797;-76
2023/09/01 06:04:15;;;;;;;5.68;0.60;;;;;;;14.89;78.59;100490.78;4998708;28;20042;-76
2023/09/01 06:06:42;;;;;;;1.15;0.40;;;;;;;14.90;78.85;100489.88;4996542;28;20133;-75
2023/09/01 06:09:12;;;;;;;4.90;0.77;;;;;;;14.62;78.93;100446.28;4991007;28;20052;-75
2023/09/01 06:11:39;;;;;;;2.58;0.80;;;;;;;14.89;79.01;100484.69;4991929;28;20391;-75
2023/09/01 06:14:07;;;;;;;6.05;0.70;;;;;;;14.95;78.89;100493.16;4991147;28;20046;-75
2023/09/01 06:16:34;;;;;;;7.22;0.90;;;;;;;14.96;79.01;100486.97;4998274;28;20073;-75
2023/09/01 06:19:01;;;;;;;3.92;0.63;;;;;;;14.97;79.03;100479.94;4990959;28;20045;-75
2023/09/01 06:21:28;;;;;;;13.73;0.70;;;;;;;14.98;79.07;100479.03;4994079;28;20490;-75
2023/09/01 06:23:55;;;;;;;2.90;0.43;;;;;;;14.98;79.00;100485.16;4995286;28;20046;-75
2023/09/01 06:26:22;;;;;;;2.47;0.20;;;;;;;14.90;79.12;100475.88;4996554;28;20069;-75
2023/09/01 06:28:49;;;;;;;1.48;0.38;;;;;;;15.00;79.03;100485.09;4987225;28;20153;-75
2023/09/01 06:31:17;;;;;;;1.88;0.40;;;;;;;15.00;79.15;100488.59;4992642;28;20499;-75
2023/09/01 06:33:46;;;;;;;1.45;0.40;;;;;;;15.01;79.06;100490.28;4989673;28;20071;-75
2023/09/01 06:36:14;;;;;;;3.65;0.47;;;;;;;15.02;78.98;100491.13;4992996;28;20085;-75
2023/09/01 06:38:41;;;;;;;1.17;0.77;;;;;;;15.04;78.98;100497.19;4987526;28;20058;-75
2023/09/01 06:41:08;;;;;;;0.75;0.30;;;;;;;15.04;79.09;100490.16;4994636;28;20450;-76
2023/09/01 06:43:35;;;;;;;0.43;0.38;;;;;;;15.06;79.20;100496.22;4997291;28;20042;-77
2023/09/01 06:46:02;;;;;;;0.85;0.43;;;;;;;15.07;79.06;100487.41;4994168;28;20069;-76
2023/09/01 06:48:31;;;;;;;1.25;0.43;;;;;;;15.02;79.47;100477.97;4993355;28;20054;-77
2023/09/01 06:50:59;;;;;;;2.05;0.40;;;;;;;15.10;79.33;100482.94;4989245;28;20070;-76
2023/09/01 06:53:26;;;;;;;3.40;0.40;;;;;;;15.06;79.43;100475.16;4995040;28;20057;-74
2023/09/01 06:55:53;;;;;;;1.52;0.30;;;;;;;15.11;79.38;100480.22;4993227;28;20060;-75
2023/09/01 06:58:20;;;;;;;0.50;0.35;;;;;;;15.13;79.15;100480.16;4994204;28;20049;-74
2023/09/01 07:00:47;;;;;;;1.45;0.50;;;;;;;15.15;79.36;100483.59;4989853;28;20088;-74
2023/09/01 07:03:13;;;;;;;4.47;1.90;;;;;;;15.13;79.07;100478.38;4994031;28;20723;-84
2023/09/01 07:05:42;;;;;;;1.20;0.40;;;;;;;15.16;79.37;100477.41;5002938;28;20058;-81
2023/09/01 07:08:13;;;;;;;2.40;0.38;;;;;;;15.17;79.30;100480.00;5000030;28;20053;-85
2023/09/01 07:10:40;;;;;;;2.25;0.40;;;;;;;15.17;79.30;100477.34;4998278;28;20070;-76
2023/09/01 07:13:10;;;;;;;3.72;0.85;;;;;;;15.19;79.30;100477.28;4999047;28;20046;-76
2023/09/01 07:15:37;;;;;;;2.22;0.40;;;;;;;15.20;79.35;100479.00;5000221;28;20049;-79
2023/09/01 07:18:05;;;;;;;2.30;0.60;;;;;;;15.20;79.16;100477.22;5003042;28;20058;-79
2023/09/01 07:20:32;;;;;;;2.65;0.30;;;;;;;15.21;79.26;100480.72;4996038;28;20056;-83
2023/09/01 07:23:00;;;;;;;1.27;0.35;;;;;;;15.22;79.27;100477.16;5005639;28;20050;-85
2023/09/01 07:25:27;;;;;;;1.60;0.40;;;;;;;15.21;79.04;100480.72;4997220;28;20047;-85
2023/09/01 07:27:54;;;;;;;1.15;0.40;;;;;;;15.22;79.42;100477.16;5000057;28;20484;-83
2023/09/01 07:30:21;;;;;;;1.00;0.35;;;;;;;15.24;79.29;100480.56;5007794;28;20044;-85
2023/09/01 07:32:48;;;;;;;0.63;0.40;;;;;;;15.24;79.35;100476.16;5002000;28;20050;-79
2023/09/01 07:35:15;;;;;;;1.85;0.32;;;;;;;15.24;79.37;100475.31;5005156;28;20443;-80
2023/09/01 07:37:41;;;;;;;1.63;0.32;;;;;;;15.25;79.31;100485.78;5007681;28;20120;-77
2023/09/01 07:40:11;;;;;;;4.40;0.40;;;;;;;15.27;79.47;100485.69;5004810;28;20056;-91
2023/09/01 07:42:38;;;;;;;3.85;0.80;;;;;;;15.27;79.28;100490.97;5005549;28;20053;-87
2023/09/01 07:45:06;;;;;;;3.38;0.40;;;;;;;15.28;79.32;100482.13;5005395;28;20052;-87
2023/09/01 07:47:32;;;;;;;1.42;0.40;;;;;;;15.28;79.40;100485.66;5011846;28;20049;-87
2023/09/01 07:49:59;;;;;;;3.13;0.60;;;;;;;15.15;79.23;100459.91;5011345;28;20051;-87
2023/09/01 07:52:28;;;;;;;1.42;0.50;;;;;;;15.28;79.58;100488.28;4999591;28;20054;-87
2023/09/01 07:54:55;;;;;;;2.15;0.38;;;;;;;15.32;79.63;100490.78;5006236;28;20517;-86
2023/09/01 07:57:23;;;;;;;0.93;0.50;;;;;;;15.32;79.75;100491.63;4997865;28;20042;-87
2023/09/01 07:59:50;;;;;;;1.98;0.50;;;;;;;15.33;79.73;100493.34;5008952;28;20073;-87
2023/09/01 08:02:17;;;;;;;5.30;0.52;;;;;;;15.36;79.65;100492.34;5010140;28;20046;-78
2023/09/01 08:04:44;;;;;;;4.28;0.82;;;;;;;15.36;79.62;100484.44;4999664;28;20722;-79
2023/09/01 08:07:11;;;;;;;2.08;0.40;;;;;;;15.38;79.79;100490.53;5002934;28;20050;-75
2023/09/01 08:09:38;;;;;;;0.77;0.50;;;;;;;15.38;79.59;100487.88;4998072;28;20054;-77
2023/09/01 08:12:05;;;;;;;0.90;0.60;;;;;;;15.39;79.71;100479.91;4998661;28;20685;-78
2023/09/01 08:14:34;;;;;;;0.50;0.50;;;;;;;15.40;79.73;100479.00;5001418;28;20050;-77
2023/09/01 08:17:01;;;;;;;1.33;0.50;;;;;;;15.42;79.56;100484.19;5001067;28;20849;-77
2023/09/01 08:19:28;;;;;;;3.15;0.50;;;;;;;15.43;79.87;100472.75;4997051;28;20499;-78
2023/09/01 08:21:56;;;;;;;4.63;0.77;;;;;;;15.44;79.58;100477.94;5006137;28;20042;-83
2023/09/01 08:24:23;;;;;;;5.53;1.52;;;;;;;15.44;79.93;100488.47;5003409;28;20078;-77
2023/09/01 08:26:50;;;;;;;1.95;0.60;;;;;;;15.44;79.60;100479.72;4998771;28;20158;-77
2023/09/01 08:29:17;;;;;;;2.38;0.50;;;;;;;15.46;79.70;100484.00;4996576;28;20054;-77
2023/09/01 08:31:46;;;;;;;0.95;0.40;;;;;;;15.47;79.74;100485.69;5004707;28;20086;-77
2023/09/01 08:34:12;;;;;;;1.35;0.40;;;;;;;15.47;79.57;100482.22;4998916;28;20049;-77
2023/09/01 08:36:39;;;;;;;1.00;0.40;;;;;;;15.49;79.69;100491.75;4998879;28;20714;-78
2023/09/01 08:39:07;;;;;;;1.60;0.50;;;;;;;15.50;79.74;100488.19;4998734;28;20491;-77
2023/09/01 08:41:35;;;;;;;10.43;1.38;;;;;;;15.50;79.44;100485.56;5002034;28;20410;-76
2023/09/01 08:44:06;;;;;;;1.85;0.47;;;;;;;15.49;79.57;100483.88;5000175;28;20049;-77
2023/09/01 08:46:33;;;;;;;1.70;0.50;;;;;;;15.50;79.75;100482.94;4996465;28;20104;-76
2023/09/01 08:49:04;;;;;;;1.00;0.50;;;;;;;15.51;79.81;100476.75;5000072;28;20049;-78
2023/09/01 08:51:32;;;;;;;3.10;0.50;;;;;;;15.52;79.70;100482.88;4997981;28;20046;-78
2023/09/01 08:54:00;;;;;;;2.65;0.60;;;;;;;15.53;79.66;100487.22;5007241;28;20042;-77
2023/09/01 08:56:27;;;;;;;4.50;0.60;;;;;;;15.47;79.87;100472.53;4999901;28;20058;-77
2023/09/01 08:58:54;;;;;;;0.70;0.35;;;;;;;15.53;79.66;100485.44;5003435;28;20502;-76
2023/09/01 09:01:22;;;;;;;1.88;0.50;;;;;;;15.55;79.71;100489.78;5001097;28;20502;-77
2023/09/01 09:03:49;;;;;;;2.35;0.50;;;;;;;15.55;79.81;100485.38;4997443;28;20073;-78
2023/09/01 09:06:31;;;;;;;0.80;0.40;;;;;;;15.58;79.93;100479.13;4960186;28;20045;-77
2023/09/01 09:09:05;;;;;;;1.50;0.50;;;;;;;15.59;79.93;100483.44;4994753;28;20456;-78
2023/09/01 09:11:32;;;;;;;0.90;0.60;;;;;;;15.60;79.90;100488.66;4993015;28;20494;-76
2023/09/01 09:13:59;;;;;;;1.95;0.45;;;;;;;15.56;80.11;100476.53;4995794;28;20050;-76
2023/09/01 09:16:26;;;;;;;1.50;0.52;;;;;;;15.61;79.88;100485.09;5000858;28;20042;-75
2023/09/01 09:18:53;;;;;;;1.40;0.40;;;;;;;15.62;79.96;100484.16;4997515;28;20059;-76
2023/09/01 09:21:26;;;;;;;0.63;0.40;;;;;;;15.54;79.78;100457.34;4996828;28;20050;-75
2023/09/01 09:23:54;;;;;;;3.15;0.60;;;;;;;15.64;79.94;100470.94;4995917;28;20046;-79
2023/09/01 09:26:25;;;;;;;1.13;0.60;;;;;;;15.65;79.99;100473.53;5009492;28;20406;-80
2023/09/01 09:28:52;;;;;;;1.40;0.68;;;;;;;15.66;79.92;100477.88;5003800;28;20042;-80
2023/09/01 09:31:19;;;;;;;3.30;0.68;;;;;;;15.66;79.81;100492.81;5003799;28;20041;-79
2023/09/01 09:33:46;;;;;;;1.58;0.70;;;;;;;15.67;79.80;100483.97;5003862;28;20060;-79
2023/09/01 09:36:13;;;;;;;1.17;0.77;;;;;;;15.67;79.87;100476.06;5001419;28;20042;-79
2023/09/01 09:38:43;;;;;;;1.13;0.70;;;;;;;15.66;79.89;100477.88;5009363;28;20048;-80
2023/09/01 09:41:10;;;;;;;1.92;0.68;;;;;;;15.68;80.04;100485.72;5000650;28;20233;-80
2023/09/01 09:43:45;;;;;;;1.77;0.77;;;;;;;15.69;79.85;100487.44;5003108;28;20050;-79
2023/09/01 09:46:12;;;;;;;2.53;0.98;;;;;;;15.69;80.02;100483.03;4996610;28;20049;-79
2023/09/01 09:48:39;;;;;;;1.85;0.60;;;;;;;15.70;79.82;100481.25;5000054;28;20049;-80
2023/09/01 09:51:08;;;;;;;2.97;0.98;;;;;;;15.72;79.84;100482.03;4999566;28;20046;-78
2023/09/01 09:53:37;;;;;;;1.00;0.30;;;;;;;15.71;79.98;100475.91;5006781;28;20061;-78
2023/09/01 09:56:30;;;;;;;1.23;0.40;;;;;;;15.73;80.12;100481.09;5003630;28;20084;-80
2023/09/01 09:59:03;;;;;;;0.73;0.30;;;;;;;15.71;80.11;100485.59;5004034;28;20050;-80
2023/09/01 10:01:31;;;;;;;3.30;0.20;;;;;;;15.69;80.24;100477.75;5003105;28;20129;-80
2023/09/01 10:03:59;;;;;;;0.82;0.20;;;;;;;15.74;80.43;100496.00;5002238;28;20048;-80
2023/09/01 10:06:26;;;;;;;0.22;0.20;;;;;;;15.70;80.38;100489.97;5005606;28;20068;-80
2023/09/01 10:08:55;;;;;;;1.20;0.20;;;;;;;15.76;80.70;100491.50;4993762;28;20046;-76
2023/09/01 10:11:23;;;;;;;1.52;0.40;;;;;;;15.79;80.63;100498.41;5000465;28;20388;-76
2023/09/01 10:13:52;;;;;;;0.47;0.10;;;;;;;15.79;80.73;100496.63;4996242;28;20046;-77
2023/09/01 10:16:20;;;;;;;1.20;0.32;;;;;;;15.83;80.71;100497.38;4993703;28;20052;-76
2023/09/01 10:18:48;;;;;;;0.85;0.10;;;;;;;15.85;80.74;100511.28;4993334;28;20053;-76
2023/09/01 10:21:17;;;;;;;0.45;0.10;;;;;;;15.87;80.81;100501.56;4997334;28;20753;-76
2023/09/01 10:23:44;;;;;;;0.75;0.10;;;;;;;15.88;80.55;100496.22;4992299;28;20072;-78
2023/09/01 10:26:16;;;;;;;0.30;0.17;;;;;;;15.92;80.81;100502.22;4998568;28;20056;-78
2023/09/01 10:29:00;;;;;;;0.82;0.20;;;;;;;15.86;80.72;100492.81;5002920;28;20054;-79
2023/09/01 10:31:27;;;;;;;0.57;0.10;;;;;;;15.94;80.80;100503.84;5001424;28;20050;-79
2023/09/01 10:34:09;;;;;;;0.73;0.10;;;;;;;15.99;80.90;100502.78;4995196;28;20046;-76
2023/09/01 10:36:36;;;;;;;3.80;0.10;;;;;;;15.93;81.06;100496.00;4994279;28;20067;-76
2023/09/01 10:39:21;;;;;;;0.25;0.08;;;;;;;16.03;80.93;100513.13;4993254;28;20054;-77
2023/09/01 10:41:52;;;;;;;0.17;0.10;;;;;;;16.03;80.89;100513.13;5001742;28;20084;-76
2023/09/01 10:44:21;;;;;;;0.63;0.10;;;;;;;16.09;81.12;100525.16;4994279;28;20049;-77
2023/09/01 10:46:49;;;;;;;1.67;0.10;;;;;;;16.11;81.43;100520.69;4999130;28;20046;-77
2023/09/01 10:49:16;;;;;;;0.15;0.10;;;;;;;16.15;81.38;100517.81;4996388;28;20052;-76
2023/09/01 10:51:43;;;;;;;0.32;0.13;;;;;;;16.17;81.05;100525.69;4994391;28;20042;-79
2023/09/01 10:54:41;;;;;;;2.15;0.10;;;;;;;16.23;81.11;100524.53;4998314;28;20052;-83
2023/09/01 10:57:15;;;;;;;0.10;0.10;;;;;;;16.23;81.27;100520.13;4997662;28;20043;-80
2023/09/01 10:59:44;;;;;;;0.68;0.20;;;;;;;16.29;81.22;100519.84;4998746;28;20041;-89
2023/09/01 11:02:22;;;;;;;1.73;0.10;;;;;;;16.32;81.27;100524.97;4998387;28;20045;-82
2023/09/01 11:04:49;;;;;;;1.00;0.10;;;;;;;16.29;81.21;100527.75;4995728;28;20526;-81
2023/09/01 11:07:17;;;;;;;0.47;0.10;;;;;;;16.37;81.27;100538.78;5007758;28;20076;-80
2023/09/01 11:09:51;;;;;;;0.40;0.10;;;;;;;16.36;81.24;100531.81;5007685;28;20050;-82
2023/09/01 11:12:18;;;;;;;0.20;0.03;;;;;;;16.38;80.98;100523.81;5006425;28;20073;-81
2023/09/01 11:14:58;;;;;;;0.57;0.13;;;;;;;16.49;80.76;100537.34;5003334;28;20054;-84
2023/09/01 11:17:45;;;;;;;0.57;0.17;;;;;;;16.55;80.99;100529.16;4999850;28;20046;-80
2023/09/01 11:20:18;;;;;;;0.57;0.10;;;;;;;16.57;80.42;100524.66;5007908;28;20084;-83
2023/09/01 11:22:45;;;;;;;0.20;0.10;;;;;;;16.63;79.99;100542.00;5004159;28;20045;-79
2023/09/01 11:25:15;;;;;;;0.40;0.10;;;;;;;16.66;79.39;100531.28;5004583;28;20054;-79
2023/09/01 11:27:45;;;;;;;0.10;0.10;;;;;;;16.71;79.53;100542.47;5009431;28;20050;-78
2023/09/01 11:30:14;;;;;;;0.25;0.10;;;;;;;16.75;79.66;100538.75;5004174;28;20052;-83